Time;durP1;ratioP1;P1;durP2;ratioP2;P2;SDS_P1;SDS_P2;PMS_P1;PMS_P2;Temp;Humidity;BMP_temperature;BMP_pressure;BME280_temperature;BME280_humidity;BME280_pressure;Samples;Min_cycle;Max_cycle;Signal;HPM_P1;HPM_P2
2023/05/30 00:01:39;;;;;;;7.28;1.67;;;;;;;;;;5023207;28;20111;-71
2023/05/30 00:04:05;;;;;;;10.77;1.70;;;;;;;;;;5022653;28;20032;-71
2023/05/30 00:06:30;;;;;;;6.32;1.58;;;;;;;;;;5019268;28;20037;-71
2023/05/30 00:08:56;;;;;;;4.38;1.55;;;;;;;;;;5022477;28;20511;-71
2023/05/30 00:11:23;;;;;;;6.97;1.70;;;;;;;;;;5021798;28;20049;-71
2023/05/30 00:13:49;;;;;;;7.90;1.90;;;;;;;;;;5008608;28;20672;-71
2023/05/30 00:16:19;;;;;;;4.55;1.50;;;;;;;;;;5021520;28;20061;-71
2023/05/30 00:18:45;;;;;;;5.68;1.83;;;;;;;;;;5021878;28;20041;-71
2023/05/30 00:21:11;;;;;;;5.50;1.50;;;;;;;;;;5020665;28;20080;-71
2023/05/30 00:23:37;;;;;;;4.53;1.60;;;;;;;;;;5022163;28;20132;-71
2023/05/30 00:26:04;;;;;;;5.00;1.70;;;;;;;;;;5023018;28;20076;-71
2023/05/30 00:28:29;;;;;;;5.32;1.50;;;;;;;;;;5023395;28;20036;-71
2023/05/30 00:30:55;;;;;;;8.13;1.65;;;;;;;;;;5024332;28;20025;-71
2023/05/30 00:33:20;;;;;;;10.15;1.77;;;;;;;;;;5022232;28;20116;-71
2023/05/30 00:35:46;;;;;;;2.92;1.45;;;;;;;;;;5023441;28;20525;-71
2023/05/30 00:38:11;;;;;;;10.25;2.15;;;;;;;;;;5022643;28;20040;-71
2023/05/30 00:40:37;;;;;;;7.75;1.85;;;;;;;;;;5023559;28;20096;-71
2023/05/30 00:43:02;;;;;;;7.25;1.50;;;;;;;;;;5019052;28;20145;-71
2023/05/30 00:45:27;;;;;;;6.05;1.80;;;;;;;;;;5014046;28;20117;-71
2023/05/30 00:47:53;;;;;;;5.70;1.63;;;;;;;;;;5022233;28;20053;-71
2023/05/30 00:50:19;;;;;;;8.10;1.90;;;;;;;;;;5027105;28;20051;-71
2023/05/30 00:52:49;;;;;;;7.07;1.67;;;;;;;;;;5022554;28;20040;-71
2023/05/30 00:55:16;;;;;;;9.55;2.03;;;;;;;;;;5020892;28;20037;-71
2023/05/30 00:57:42;;;;;;;5.57;1.73;;;;;;;;;;5020603;28;20039;-72
2023/05/30 01:00:10;;;;;;;6.40;1.50;;;;;;;;;;5021454;28;20040;-71
2023/05/30 01:02:36;;;;;;;6.68;1.88;;;;;;;;;;5020214;28;20048;-72
2023/05/30 01:05:02;;;;;;;5.25;1.60;;;;;;;;;;5036885;28;20545;-71
2023/05/30 01:07:27;;;;;;;5.10;1.83;;;;;;;;;;5036266;28;20033;-71
2023/05/30 01:09:54;;;;;;;8.50;1.70;;;;;;;;;;5028227;28;20032;-71
2023/05/30 01:12:33;;;;;;;9.38;2.00;;;;;;;;;;5025281;28;20511;-71
2023/05/30 01:15:13;;;;;;;7.85;1.90;;;;;;;;;;5025727;28;20040;-71
2023/05/30 01:18:08;;;;;;;10.10;1.95;;;;;;;;;;5019206;28;20050;-71
2023/05/30 01:20:44;;;;;;;7.07;1.80;;;;;;;;;;5024205;28;20063;-71
2023/05/30 01:23:41;;;;;;;6.30;2.10;;;;;;;;;;5023122;28;20188;-71
2023/05/30 01:26:10;;;;;;;4.90;1.50;;;;;;;;;;5026080;28;20084;-71
2023/05/30 01:28:37;;;;;;;8.82;1.80;;;;;;;;;;5026312;28;20082;-71
2023/05/30 01:31:04;;;;;;;5.13;1.58;;;;;;;;;;5025782;28;20545;-71
2023/05/30 01:33:31;;;;;;;5.20;1.42;;;;;;;;;;5026599;28;20041;-71
2023/05/30 01:35:56;;;;;;;11.48;2.05;;;;;;;;;;5025942;28;20038;-71
2023/05/30 01:38:21;;;;;;;7.10;1.73;;;;;;;;;;5026451;28;20523;-71
2023/05/30 01:40:50;;;;;;;7.65;2.03;;;;;;;;;;5025566;28;20051;-71
2023/05/30 01:43:39;;;;;;;9.95;2.35;;;;;;;;;;5026336;28;20053;-71
2023/05/30 01:46:09;;;;;;;6.78;1.58;;;;;;;;;;5019959;28;20042;-71
2023/05/30 01:48:57;;;;;;;9.15;1.83;;;;;;;;;;5026222;28;20117;-71
2023/05/30 01:51:29;;;;;;;4.78;1.85;;;;;;;;;;5021893;28;20038;-71
2023/05/30 01:54:05;;;;;;;10.98;2.05;;;;;;;;;;5024195;28;20128;-72
2023/05/30 01:56:32;;;;;;;5.22;1.67;;;;;;;;;;5020393;28;20037;-71
2023/05/30 01:58:59;;;;;;;5.57;1.42;;;;;;;;;;5023972;28;20546;-71
2023/05/30 02:01:28;;;;;;;4.72;1.65;;;;;;;;;;5026292;28;20056;-71
2023/05/30 02:03:54;;;;;;;6.90;1.40;;;;;;;;;;5025565;28;20124;-71
2023/05/30 02:06:19;;;;;;;3.63;1.35;;;;;;;;;;5026241;28;20140;-71
2023/05/30 02:08:45;;;;;;;5.43;1.70;;;;;;;;;;5016671;28;20541;-71
2023/05/30 02:11:10;;;;;;;9.00;1.60;;;;;;;;;;5018332;28;20030;-72
2023/05/30 02:13:36;;;;;;;5.03;1.80;;;;;;;;;;5025587;28;20025;-71
2023/05/30 02:16:01;;;;;;;7.50;1.80;;;;;;;;;;5024357;28;20022;-70
2023/05/30 02:18:27;;;;;;;8.75;2.10;;;;;;;;;;5025573;28;20041;-71
2023/05/30 02:20:54;;;;;;;14.13;2.42;;;;;;;;;;5023323;28;20041;-71
2023/05/30 02:23:19;;;;;;;5.57;1.55;;;;;;;;;;5018734;28;20511;-71
2023/05/30 02:25:45;;;;;;;11.55;2.10;;;;;;;;;;5025420;28;20032;-71
2023/05/30 02:28:10;;;;;;;5.90;1.77;;;;;;;;;;5033822;28;20064;-71
2023/05/30 02:30:36;;;;;;;5.68;1.67;;;;;;;;;;5033922;28;20126;-71
2023/05/30 02:33:02;;;;;;;9.45;1.85;;;;;;;;;;5024239;28;20777;-71
2023/05/30 02:35:27;;;;;;;6.78;1.75;;;;;;;;;;5024554;28;20033;-71
2023/05/30 02:37:52;;;;;;;6.07;1.92;;;;;;;;;;5024007;28;20025;-71
2023/05/30 02:40:18;;;;;;;8.48;1.88;;;;;;;;;;5035075;28;20056;-71
2023/05/30 02:42:43;;;;;;;6.40;1.85;;;;;;;;;;5023883;28;20431;-71
2023/05/30 02:45:09;;;;;;;8.02;2.00;;;;;;;;;;5025061;28;20128;-71
2023/05/30 02:47:34;;;;;;;13.90;2.13;;;;;;;;;;5024731;28;20122;-71
2023/05/30 02:50:00;;;;;;;4.97;1.77;;;;;;;;;;5023446;28;20029;-72
2023/05/30 02:52:26;;;;;;;5.53;1.50;;;;;;;;;;5018368;28;20623;-71
2023/05/30 02:54:51;;;;;;;7.22;1.67;;;;;;;;;;5024164;28;20037;-72
2023/05/30 02:57:16;;;;;;;5.30;1.77;;;;;;;;;;5012446;28;20065;-71
2023/05/30 02:59:42;;;;;;;9.95;2.17;;;;;;;;;;5020472;28;20029;-71
2023/05/30 03:02:09;;;;;;;8.00;2.45;;;;;;;;;;5024565;28;20033;-71
2023/05/30 03:04:36;;;;;;;11.68;1.92;;;;;;;;;;5026911;28;20029;-71
2023/05/30 03:07:02;;;;;;;9.55;1.65;;;;;;;;;;5024718;28;20962;-71
2023/05/30 03:09:27;;;;;;;13.02;1.95;;;;;;;;;;5023977;28;20044;-71
2023/05/30 03:11:53;;;;;;;5.32;1.90;;;;;;;;;;5023878;28;20037;-71
2023/05/30 03:14:18;;;;;;;9.55;1.95;;;;;;;;;;5024024;28;20029;-71
2023/05/30 03:16:43;;;;;;;5.88;1.70;;;;;;;;;;5023241;28;20060;-71
2023/05/30 03:19:09;;;;;;;5.63;1.73;;;;;;;;;;5023216;28;20104;-71
2023/05/30 03:21:36;;;;;;;12.40;2.00;;;;;;;;;;5016640;28;20127;-71
2023/05/30 03:24:02;;;;;;;5.75;1.90;;;;;;;;;;5022472;28;20033;-71
2023/05/30 03:26:27;;;;;;;13.48;1.88;;;;;;;;;;5022589;28;20046;-71
2023/05/30 03:28:53;;;;;;;8.27;1.67;;;;;;;;;;5016607;28;20530;-71
2023/05/30 03:31:18;;;;;;;9.02;2.08;;;;;;;;;;5025167;28;20033;-71
2023/05/30 03:33:44;;;;;;;7.63;1.95;;;;;;;;;;5022968;28;20037;-71
2023/05/30 03:36:10;;;;;;;10.02;2.08;;;;;;;;;;5019144;28;20678;-70
2023/05/30 03:38:36;;;;;;;8.20;1.58;;;;;;;;;;5017483;28;20038;-71
2023/05/30 03:41:02;;;;;;;5.85;2.00;;;;;;;;;;5022830;28;20403;-71
2023/05/30 03:43:27;;;;;;;6.22;1.80;;;;;;;;;;5024411;28;20545;-71
2023/05/30 03:45:52;;;;;;;7.22;1.90;;;;;;;;;;5024335;28;20025;-71
2023/05/30 03:48:17;;;;;;;6.38;1.77;;;;;;;;;;5016834;28;20453;-71
2023/05/30 03:50:43;;;;;;;9.68;1.98;;;;;;;;;;5020271;28;20403;-71
2023/05/30 03:53:08;;;;;;;6.43;1.40;;;;;;;;;;5036100;28;20037;-71
2023/05/30 03:55:34;;;;;;;9.45;2.50;;;;;;;;;;5027594;28;20631;-71
2023/05/30 03:57:59;;;;;;;13.88;1.90;;;;;;;;;;5024952;28;20022;-71
2023/05/30 04:00:24;;;;;;;11.32;1.95;;;;;;;;;;5024496;28;20041;-71
2023/05/30 04:02:49;;;;;;;9.38;1.58;;;;;;;;;;5023745;28;20692;-71
2023/05/30 04:05:15;;;;;;;4.90;2.10;;;;;;;;;;5022503;28;20042;-71
2023/05/30 04:07:41;;;;;;;6.63;1.75;;;;;;;;;;5014191;28;20033;-71
2023/05/30 04:10:06;;;;;;;4.70;1.50;;;;;;;;;;5013391;28;20637;-71
2023/05/30 04:12:32;;;;;;;6.05;1.58;;;;;;;;;;5023055;28;20076;-72
2023/05/30 04:14:57;;;;;;;15.38;2.53;;;;;;;;;;5024177;28;20036;-71
2023/05/30 04:17:22;;;;;;;9.15;2.13;;;;;;;;;;5023179;28;20168;-72
2023/05/30 04:19:48;;;;;;;10.65;2.30;;;;;;;;;;5024091;28;20041;-71
2023/05/30 04:22:13;;;;;;;9.68;1.90;;;;;;;;;;5021329;28;20025;-71
2023/05/30 04:24:38;;;;;;;7.72;2.17;;;;;;;;;;5018059;28;20048;-72
2023/05/30 04:27:04;;;;;;;8.60;1.98;;;;;;;;;;5018273;28;20041;-71
2023/05/30 04:29:29;;;;;;;7.88;2.10;;;;;;;;;;5024314;28;20040;-72
2023/05/30 04:31:56;;;;;;;9.88;2.33;;;;;;;;;;5025279;28;20048;-71
2023/05/30 04:34:22;;;;;;;10.75;2.00;;;;;;;;;;5022671;28;20133;-72
2023/05/30 04:36:48;;;;;;;8.38;2.10;;;;;;;;;;5027120;28;20056;-71
2023/05/30 04:39:13;;;;;;;9.05;2.47;;;;;;;;;;5024972;28;20892;-72
2023/05/30 04:41:40;;;;;;;8.15;2.53;;;;;;;;;;5024788;28;20080;-72
2023/05/30 04:44:06;;;;;;;10.80;2.17;;;;;;;;;;5027268;28;20033;-72
2023/05/30 04:46:32;;;;;;;8.35;2.10;;;;;;;;;;5026031;28;20029;-72
2023/05/30 04:49:00;;;;;;;6.97;2.10;;;;;;;;;;5019572;28;20033;-72
2023/05/30 04:51:26;;;;;;;5.97;2.08;;;;;;;;;;5021703;28;20037;-72
2023/05/30 04:53:52;;;;;;;12.45;2.08;;;;;;;;;;5027521;28;20034;-72
2023/05/30 04:56:19;;;;;;;10.43;2.50;;;;;;;;;;5022663;28;20048;-72
2023/05/30 04:58:46;;;;;;;11.82;3.10;;;;;;;;;;5020699;28;20036;-72
2023/05/30 05:01:13;;;;;;;9.98;2.20;;;;;;;;;;5025488;28;20502;-72
2023/05/30 05:03:39;;;;;;;9.60;2.10;;;;;;;;;;5024807;28;20414;-72
2023/05/30 05:06:06;;;;;;;10.70;2.17;;;;;;;;;;5026605;28;20045;-72
2023/05/30 05:08:33;;;;;;;9.18;2.50;;;;;;;;;;5026925;28;20045;-72
2023/05/30 05:11:00;;;;;;;9.23;2.17;;;;;;;;;;5025774;28;20061;-72
2023/05/30 05:13:25;;;;;;;12.60;2.67;;;;;;;;;;5031000;28;20091;-72
2023/05/30 05:15:51;;;;;;;9.85;2.15;;;;;;;;;;5036213;28;20399;-72
2023/05/30 05:18:16;;;;;;;10.55;2.45;;;;;;;;;;5031474;28;20045;-72
2023/05/30 05:20:42;;;;;;;6.68;2.53;;;;;;;;;;5019245;28;20045;-72
2023/05/30 05:23:08;;;;;;;8.00;2.58;;;;;;;;;;5018974;28;20037;-72
2023/05/30 05:25:33;;;;;;;10.80;2.53;;;;;;;;;;5009229;28;20034;-72
2023/05/30 05:27:59;;;;;;;12.82;2.20;;;;;;;;;;5019977;28;20036;-72
2023/05/30 05:30:24;;;;;;;10.27;3.83;;;;;;;;;;5013291;28;20045;-72
2023/05/30 05:32:50;;;;;;;14.68;3.20;;;;;;;;;;5013464;28;20478;-72
2023/05/30 05:35:15;;;;;;;10.55;2.30;;;;;;;;;;5021120;28;20792;-72
2023/05/30 05:37:40;;;;;;;7.38;2.22;;;;;;;;;;5009008;28;20024;-71
2023/05/30 05:40:10;;;;;;;12.10;2.67;;;;;;;;;;5016745;28;20445;-72
2023/05/30 05:42:36;;;;;;;13.88;2.88;;;;;;;;;;5017418;28;20037;-72
2023/05/30 05:45:01;;;;;;;10.65;2.65;;;;;;;;;;5012088;28;20095;-72
2023/05/30 05:47:26;;;;;;;8.50;2.45;;;;;;;;;;5019455;28;20533;-72
2023/05/30 05:49:52;;;;;;;20.40;3.70;;;;;;;;;;5015124;28;20120;-72
2023/05/30 05:52:18;;;;;;;12.05;2.50;;;;;;;;;;5016241;28;20080;-72
2023/05/30 05:54:44;;;;;;;9.68;2.70;;;;;;;;;;5022633;28;20284;-72
2023/05/30 05:57:09;;;;;;;15.32;2.58;;;;;;;;;;5020617;28;20581;-72
2023/05/30 05:59:35;;;;;;;11.30;2.67;;;;;;;;;;5013792;28;20073;-72
2023/05/30 06:02:00;;;;;;;11.23;3.17;;;;;;;;;;5018030;28;20049;-72
2023/05/30 06:04:25;;;;;;;13.73;3.70;;;;;;;;;;5017268;28;20040;-72
2023/05/30 06:06:51;;;;;;;11.05;2.55;;;;;;;;;;5017446;28;20034;-73
2023/05/30 06:09:17;;;;;;;8.45;2.53;;;;;;;;;;5017930;28;20038;-72
2023/05/30 06:11:42;;;;;;;15.02;3.22;;;;;;;;;;5018564;28;20068;-72
2023/05/30 06:14:07;;;;;;;12.25;2.67;;;;;;;;;;5012720;28;20108;-72
2023/05/30 06:16:33;;;;;;;7.35;2.45;;;;;;;;;;5020629;28;20048;-72
2023/05/30 06:18:58;;;;;;;10.35;2.90;;;;;;;;;;5020035;28;20116;-72
2023/05/30 06:21:23;;;;;;;19.40;3.00;;;;;;;;;;5021925;28;20041;-73
2023/05/30 06:23:49;;;;;;;13.23;3.17;;;;;;;;;;5021245;28;20057;-72
2023/05/30 06:26:14;;;;;;;10.35;2.67;;;;;;;;;;5015228;28;20037;-72
2023/05/30 06:28:39;;;;;;;13.00;3.60;;;;;;;;;;5024192;28;20117;-72
2023/05/30 06:31:05;;;;;;;10.35;2.90;;;;;;;;;;5024087;28;20120;-72
2023/05/30 06:33:30;;;;;;;17.52;3.75;;;;;;;;;;5022190;28;20037;-72
2023/05/30 06:35:55;;;;;;;14.05;2.88;;;;;;;;;;5024224;28;20418;-72
2023/05/30 06:38:21;;;;;;;11.00;3.30;;;;;;;;;;5014734;28;20084;-73
2023/05/30 06:40:46;;;;;;;11.52;3.30;;;;;;;;;;5025656;28;20029;-72
2023/05/30 06:43:12;;;;;;;11.05;2.78;;;;;;;;;;5018725;28;20034;-72
2023/05/30 06:45:37;;;;;;;11.52;2.97;;;;;;;;;;5016053;28;20421;-72
2023/05/30 06:48:03;;;;;;;14.45;3.10;;;;;;;;;;5012496;28;20041;-72
2023/05/30 06:50:28;;;;;;;8.98;2.50;;;;;;;;;;5020403;28;20103;-72
2023/05/30 06:52:54;;;;;;;7.38;3.22;;;;;;;;;;5016705;28;20047;-72
2023/05/30 06:55:19;;;;;;;9.30;2.88;;;;;;;;;;5016261;28;20033;-72
2023/05/30 06:57:44;;;;;;;11.35;3.28;;;;;;;;;;5015892;28;20049;-72
2023/05/30 07:00:11;;;;;;;10.57;3.15;;;;;;;;;;5024582;28;20045;-72
2023/05/30 07:02:36;;;;;;;15.40;3.33;;;;;;;;;;5017230;28;20069;-72
2023/05/30 07:05:02;;;;;;;8.63;3.17;;;;;;;;;;5017470;28;20957;-72
2023/05/30 07:07:27;;;;;;;13.60;3.72;;;;;;;;;;5015283;28;20048;-72
2023/05/30 07:09:53;;;;;;;10.77;3.20;;;;;;;;;;5012874;28;20026;-72
2023/05/30 07:12:18;;;;;;;17.38;3.42;;;;;;;;;;5015676;28;20440;-72
2023/05/30 07:14:43;;;;;;;23.05;3.28;;;;;;;;;;5022992;28;20021;-72
2023/05/30 07:17:09;;;;;;;14.05;3.53;;;;;;;;;;5022712;28;20030;-72
2023/05/30 07:19:34;;;;;;;10.52;3.08;;;;;;;;;;5016068;28;20030;-72
2023/05/30 07:22:00;;;;;;;11.95;2.97;;;;;;;;;;5019073;28;20539;-72
2023/05/30 07:24:25;;;;;;;8.27;3.70;;;;;;;;;;5017364;28;20037;-72
2023/05/30 07:26:51;;;;;;;9.25;2.88;;;;;;;;;;5017332;28;20535;-72
2023/05/30 07:29:16;;;;;;;10.85;3.28;;;;;;;;;;5015832;28;20044;-73
2023/05/30 07:31:41;;;;;;;12.93;3.80;;;;;;;;;;5015828;28;20021;-73
2023/05/30 07:34:07;;;;;;;10.85;3.17;;;;;;;;;;5015482;28;20486;-72
2023/05/30 07:36:32;;;;;;;9.70;2.97;;;;;;;;;;5015089;28;20499;-72
2023/05/30 07:38:58;;;;;;;8.70;3.38;;;;;;;;;;5016894;28;20057;-72
2023/05/30 07:41:23;;;;;;;8.07;3.08;;;;;;;;;;5008083;28;20049;-72
2023/05/30 07:43:49;;;;;;;9.82;3.00;;;;;;;;;;5012862;28;20521;-72
2023/05/30 07:46:14;;;;;;;11.18;3.20;;;;;;;;;;5012969;28;20041;-72
2023/05/30 07:48:40;;;;;;;13.93;3.10;;;;;;;;;;5018822;28;20091;-72
2023/05/30 07:51:06;;;;;;;9.65;3.50;;;;;;;;;;5018786;28;20060;-72
2023/05/30 07:53:32;;;;;;;12.73;3.58;;;;;;;;;;5017358;28;20478;-72
2023/05/30 07:55:58;;;;;;;11.82;3.15;;;;;;;;;;5023096;28;20041;-72
2023/05/30 07:58:24;;;;;;;7.97;3.00;;;;;;;;;;5023314;28;20041;-72
2023/05/30 08:00:50;;;;;;;9.77;3.30;;;;;;;;;;5025397;28;20033;-72
2023/05/30 08:03:15;;;;;;;11.48;3.50;;;;;;;;;;5037803;28;20037;-72
2023/05/30 08:05:41;;;;;;;13.15;4.28;;;;;;;;;;5024478;28;20044;-72
2023/05/30 08:08:07;;;;;;;11.20;3.50;;;;;;;;;;5027319;28;20979;-72
2023/05/30 08:10:33;;;;;;;7.63;3.00;;;;;;;;;;5027332;28;20032;-72
2023/05/30 08:12:58;;;;;;;10.02;3.97;;;;;;;;;;5023966;28;20411;-72
2023/05/30 08:15:24;;;;;;;12.57;3.40;;;;;;;;;;5025364;28;20446;-72
2023/05/30 08:17:50;;;;;;;14.05;3.38;;;;;;;;;;5027250;28;20423;-72
2023/05/30 08:20:16;;;;;;;11.15;3.53;;;;;;;;;;5027047;28;20032;-72
2023/05/30 08:22:42;;;;;;;11.30;3.10;;;;;;;;;;5035475;28;20035;-72
2023/05/30 08:25:07;;;;;;;10.50;3.25;;;;;;;;;;5027846;28;20017;-72
2023/05/30 08:27:34;;;;;;;10.38;3.47;;;;;;;;;;5026739;28;20466;-72
2023/05/30 08:30:00;;;;;;;9.48;3.33;;;;;;;;;;5028693;28;20041;-72
2023/05/30 08:32:26;;;;;;;13.63;4.15;;;;;;;;;;5017571;28;20041;-72
2023/05/30 08:34:51;;;;;;;12.55;3.80;;;;;;;;;;5026737;28;20032;-72
2023/05/30 08:37:18;;;;;;;14.82;4.05;;;;;;;;;;5027413;28;20025;-72
2023/05/30 08:39:44;;;;;;;9.30;3.40;;;;;;;;;;5026411;28;20087;-72
2023/05/30 08:42:12;;;;;;;9.52;4.22;;;;;;;;;;5017454;28;20092;-72
2023/05/30 08:44:38;;;;;;;14.02;3.72;;;;;;;;;;5015713;28;20045;-72
2023/05/30 08:47:07;;;;;;;13.27;3.78;;;;;;;;;;5019532;28;20751;-72
2023/05/30 08:49:34;;;;;;;15.15;4.10;;;;;;;;;;5018599;28;20025;-72
2023/05/30 08:52:02;;;;;;;13.05;3.50;;;;;;;;;;5014110;28;20055;-72
2023/05/30 08:54:35;;;;;;;10.50;3.75;;;;;;;;;;5031523;28;20120;-72
2023/05/30 08:57:14;;;;;;;9.75;3.15;;;;;;;;;;5014093;28;20056;-72
2023/05/30 08:59:40;;;;;;;11.07;3.90;;;;;;;;;;5018435;28;20037;-72
2023/05/30 09:02:06;;;;;;;9.52;3.95;;;;;;;;;;5015123;28;20042;-72
2023/05/30 09:04:32;;;;;;;12.50;3.95;;;;;;;;;;5017850;28;20076;-72
2023/05/30 09:06:58;;;;;;;11.80;4.70;;;;;;;;;;5014402;28;20053;-72
2023/05/30 09:09:24;;;;;;;16.27;4.43;;;;;;;;;;5016628;28;20515;-72
2023/05/30 09:11:53;;;;;;;11.07;3.90;;;;;;;;;;5012955;28;20045;-72
2023/05/30 09:14:18;;;;;;;15.73;4.28;;;;;;;;;;5014832;28;20042;-72
2023/05/30 09:16:44;;;;;;;8.90;3.60;;;;;;;;;;5017163;28;20025;-72
2023/05/30 09:19:09;;;;;;;11.05;3.47;;;;;;;;;;5012753;28;20769;-72
2023/05/30 09:21:35;;;;;;;14.00;3.17;;;;;;;;;;5022503;28;20514;-72
2023/05/30 09:24:04;;;;;;;10.52;3.60;;;;;;;;;;5026998;28;20133;-72
2023/05/30 09:26:32;;;;;;;9.13;3.55;;;;;;;;;;5033149;28;20541;-72
2023/05/30 09:29:11;;;;;;;15.88;3.45;;;;;;;;;;5019015;28;20065;-72
2023/05/30 09:31:37;;;;;;;16.05;4.25;;;;;;;;;;5015200;28;20033;-72
2023/05/30 09:34:03;;;;;;;10.10;3.90;;;;;;;;;;5019106;28;20607;-71
2023/05/30 09:36:28;;;;;;;8.73;3.92;;;;;;;;;;5016230;28;20029;-71
2023/05/30 09:38:59;;;;;;;13.98;3.67;;;;;;;;;;5024283;28;20086;-71
2023/05/30 09:41:26;;;;;;;16.75;4.00;;;;;;;;;;5024589;28;20125;-71
2023/05/30 09:43:55;;;;;;;11.95;3.88;;;;;;;;;;5024464;28;20029;-71
2023/05/30 09:46:22;;;;;;;11.20;3.28;;;;;;;;;;5026258;28;20467;-71
2023/05/30 09:48:48;;;;;;;8.25;3.50;;;;;;;;;;5025924;28;20567;-71
2023/05/30 09:51:15;;;;;;;11.95;4.35;;;;;;;;;;5023290;28;20053;-71
2023/05/30 09:53:54;;;;;;;8.63;4.38;;;;;;;;;;5021439;28;20052;-71
2023/05/30 09:56:20;;;;;;;13.13;4.40;;;;;;;;;;5023944;28;20059;-71
2023/05/30 09:58:45;;;;;;;10.88;4.20;;;;;;;;;;5025728;28;20414;-71
2023/05/30 10:01:16;;;;;;;10.65;4.10;;;;;;;;;;5025555;28;20388;-71
2023/05/30 10:03:43;;;;;;;12.38;4.47;;;;;;;;;;5025640;28;20497;-71
2023/05/30 10:06:13;;;;;;;9.70;4.18;;;;;;;;;;5024370;28;20037;-71
2023/05/30 10:08:42;;;;;;;13.68;4.63;;;;;;;;;;5024074;28;20044;-71
2023/05/30 10:11:08;;;;;;;10.05;4.30;;;;;;;;;;5025081;28;20565;-71
2023/05/30 10:13:34;;;;;;;10.18;3.85;;;;;;;;;;5025451;28;20041;-71
2023/05/30 10:16:01;;;;;;;14.27;4.20;;;;;;;;;;5025731;28;20033;-71
2023/05/30 10:18:29;;;;;;;11.60;4.93;;;;;;;;;;5021067;28;20045;-71
2023/05/30 10:20:57;;;;;;;9.15;4.00;;;;;;;;;;5021587;28;20056;-71
2023/05/30 10:23:23;;;;;;;16.33;4.72;;;;;;;;;;5024478;28;20049;-71
2023/05/30 10:25:54;;;;;;;9.63;4.03;;;;;;;;;;5024949;28;20087;-71
2023/05/30 10:28:26;;;;;;;8.05;3.95;;;;;;;;;;5025705;28;20462;-71
2023/05/30 10:30:52;;;;;;;15.35;4.93;;;;;;;;;;5022355;28;20506;-71
2023/05/30 10:33:18;;;;;;;12.60;4.78;;;;;;;;;;5024047;28;20580;-71
2023/05/30 10:35:46;;;;;;;6.88;4.40;;;;;;;;;;5023182;28;20037;-71
2023/05/30 10:38:12;;;;;;;17.45;5.13;;;;;;;;;;5022375;28;20037;-71
2023/05/30 10:41:06;;;;;;;10.13;4.15;;;;;;;;;;5022047;28;20048;-71
2023/05/30 10:43:49;;;;;;;11.45;4.25;;;;;;;;;;5033438;28;20396;-71
2023/05/30 10:46:39;;;;;;;11.98;4.60;;;;;;;;;;5028897;28;20095;-71
2023/05/30 10:49:08;;;;;;;14.80;4.78;;;;;;;;;;5036799;28;20049;-71
2023/05/30 10:52:03;;;;;;;11.60;4.78;;;;;;;;;;5018204;28;20041;-71
2023/05/30 10:54:31;;;;;;;17.60;5.55;;;;;;;;;;5008392;28;20121;-71
2023/05/30 10:56:58;;;;;;;12.35;4.80;;;;;;;;;;5015458;28;20045;-71
2023/05/30 10:59:24;;;;;;;10.20;4.90;;;;;;;;;;5024419;28;20772;-71
2023/05/30 11:02:00;;;;;;;12.75;4.75;;;;;;;;;;5022740;28;20060;-71
2023/05/30 11:04:49;;;;;;;10.32;4.57;;;;;;;;;;5025002;28;20096;-71
2023/05/30 11:07:16;;;;;;;14.13;4.40;;;;;;;;;;5024222;28;20080;-71
2023/05/30 11:10:14;;;;;;;11.15;5.25;;;;;;;;;;5023916;28;20042;-71
2023/05/30 11:12:44;;;;;;;18.67;4.63;;;;;;;;;;5023175;28;20065;-71
2023/05/30 11:15:14;;;;;;;10.05;4.30;;;;;;;;;;5024778;28;20065;-71
2023/05/30 11:17:40;;;;;;;12.52;4.80;;;;;;;;;;5020360;28;20034;-71
2023/05/30 11:20:17;;;;;;;13.27;4.50;;;;;;;;;;5013009;28;20041;-71
2023/05/30 11:23:02;;;;;;;11.15;4.30;;;;;;;;;;5022255;28;20021;-71
2023/05/30 11:25:30;;;;;;;10.18;4.78;;;;;;;;;;5020168;28;20533;-71
2023/05/30 11:28:04;;;;;;;19.55;5.07;;;;;;;;;;5022483;28;20075;-71
2023/05/30 11:30:35;;;;;;;11.05;4.78;;;;;;;;;;5018561;28;20041;-71
2023/05/30 11:33:01;;;;;;;11.65;4.38;;;;;;;;;;5023940;28;20404;-71
2023/05/30 11:35:27;;;;;;;13.63;4.63;;;;;;;;;;5023656;28;20099;-71
2023/05/30 11:37:53;;;;;;;13.00;5.40;;;;;;;;;;5023087;28;20048;-71
2023/05/30 11:40:21;;;;;;;10.45;4.53;;;;;;;;;;5026704;28;20108;-71
2023/05/30 11:42:53;;;;;;;13.30;4.93;;;;;;;;;;5023948;28;20037;-71
2023/05/30 11:45:23;;;;;;;9.70;4.93;;;;;;;;;;5023872;28;20128;-72
2023/05/30 11:47:48;;;;;;;15.00;4.78;;;;;;;;;;5022972;28;20045;-71
2023/05/30 11:50:14;;;;;;;12.07;5.10;;;;;;;;;;5023900;28;20038;-71
2023/05/30 11:52:39;;;;;;;12.07;5.00;;;;;;;;;;5016893;28;20574;-71
2023/05/30 11:55:05;;;;;;;10.73;4.75;;;;;;;;;;5024382;28;20658;-71
2023/05/30 11:57:31;;;;;;;11.20;5.10;;;;;;;;;;5022305;28;20029;-71
2023/05/30 11:59:57;;;;;;;15.27;5.70;;;;;;;;;;5024008;28;20045;-71
2023/05/30 12:02:29;;;;;;;11.02;4.40;;;;;;;;;;5018138;28;20045;-71
2023/05/30 12:05:02;;;;;;;12.52;4.50;;;;;;;;;;5023994;28;20029;-71
2023/05/30 12:07:28;;;;;;;16.58;5.00;;;;;;;;;;5025026;28;20018;-71
2023/05/30 12:09:54;;;;;;;10.60;5.18;;;;;;;;;;5025794;28;20038;-71
2023/05/30 12:12:20;;;;;;;11.98;5.30;;;;;;;;;;5018319;28;20037;-71
2023/05/30 12:14:45;;;;;;;12.57;5.20;;;;;;;;;;5031052;28;20033;-71
2023/05/30 12:17:16;;;;;;;8.10;4.82;;;;;;;;;;5024834;28;20045;-71
2023/05/30 12:19:42;;;;;;;10.23;5.38;;;;;;;;;;5024396;28;20021;-71
2023/05/30 12:22:08;;;;;;;12.60;5.72;;;;;;;;;;5014307;28;20491;-71
2023/05/30 12:24:36;;;;;;;14.95;5.82;;;;;;;;;;5023822;28;20037;-71
2023/05/30 12:27:02;;;;;;;11.50;5.30;;;;;;;;;;5021898;28;20463;-71
2023/05/30 12:29:31;;;;;;;8.65;4.78;;;;;;;;;;5018486;28;20042;-71
2023/05/30 12:31:56;;;;;;;12.35;5.32;;;;;;;;;;5021925;28;20073;-71
2023/05/30 12:34:22;;;;;;;15.38;5.40;;;;;;;;;;5023769;28;20156;-71
2023/05/30 12:36:48;;;;;;;12.50;5.63;;;;;;;;;;5023259;28;20528;-71
2023/05/30 12:39:14;;;;;;;15.23;4.88;;;;;;;;;;5016683;28;20037;-71
2023/05/30 12:41:42;;;;;;;10.93;5.28;;;;;;;;;;5005223;28;20116;-71
2023/05/30 12:44:14;;;;;;;10.40;5.07;;;;;;;;;;5014987;28;20400;-71
2023/05/30 12:46:41;;;;;;;11.23;5.30;;;;;;;;;;5026372;28;20061;-71
2023/05/30 12:49:08;;;;;;;16.48;5.30;;;;;;;;;;5026267;28;20048;-71
2023/05/30 12:51:33;;;;;;;13.43;5.60;;;;;;;;;;5025568;28;20033;-71
2023/05/30 12:53:59;;;;;;;14.25;5.53;;;;;;;;;;5025708;28;20454;-71
2023/05/30 12:56:25;;;;;;;10.05;5.60;;;;;;;;;;5026097;28;20068;-72
2023/05/30 12:58:51;;;;;;;15.45;5.80;;;;;;;;;;5014698;28;20033;-71
2023/05/30 13:01:17;;;;;;;8.65;5.25;;;;;;;;;;5026839;28;20071;-71
2023/05/30 13:03:43;;;;;;;12.25;4.78;;;;;;;;;;5026367;28;20029;-71
2023/05/30 13:06:08;;;;;;;11.60;5.32;;;;;;;;;;5024791;28;20041;-71
2023/05/30 13:08:33;;;;;;;11.38;5.15;;;;;;;;;;5027118;28;20040;-71
2023/05/30 13:10:59;;;;;;;13.85;5.43;;;;;;;;;;5025983;28;20035;-71
2023/05/30 13:13:24;;;;;;;10.40;5.32;;;;;;;;;;5027145;28;20107;-71
2023/05/30 13:15:50;;;;;;;10.10;4.78;;;;;;;;;;5026069;28;20041;-71
2023/05/30 13:18:15;;;;;;;11.32;4.93;;;;;;;;;;5026784;28;20025;-71
2023/05/30 13:20:41;;;;;;;11.18;4.68;;;;;;;;;;5014412;28;20045;-71
2023/05/30 13:23:06;;;;;;;14.63;5.00;;;;;;;;;;5023090;28;20033;-71
2023/05/30 13:25:31;;;;;;;9.57;5.13;;;;;;;;;;5018348;28;20741;-71
2023/05/30 13:27:57;;;;;;;16.88;4.78;;;;;;;;;;5014783;28;20087;-71
2023/05/30 13:30:22;;;;;;;12.13;5.53;;;;;;;;;;5020986;28;20034;-71
2023/05/30 13:32:47;;;;;;;8.73;4.88;;;;;;;;;;5027370;28;20033;-72
2023/05/30 13:35:13;;;;;;;9.55;4.80;;;;;;;;;;5034024;28;20034;-71
2023/05/30 13:37:38;;;;;;;9.73;4.47;;;;;;;;;;5034899;28;20013;-72
2023/05/30 13:40:04;;;;;;;11.25;4.38;;;;;;;;;;5018153;28;20771;-71
2023/05/30 13:42:29;;;;;;;8.23;4.53;;;;;;;;;;5026276;28;20072;-72
2023/05/30 13:44:55;;;;;;;9.48;4.63;;;;;;;;;;5025309;28;20026;-71
2023/05/30 13:47:20;;;;;;;10.80;5.35;;;;;;;;;;5025581;28;20037;-71
2023/05/30 13:49:46;;;;;;;8.38;4.50;;;;;;;;;;5025796;28;20017;-72
2023/05/30 13:52:11;;;;;;;11.15;4.07;;;;;;;;;;5026557;28;20013;-72
2023/05/30 13:54:40;;;;;;;11.93;4.82;;;;;;;;;;5016498;28;20087;-71
2023/05/30 13:57:06;;;;;;;12.00;4.78;;;;;;;;;;5011904;28;20124;-72
2023/05/30 13:59:32;;;;;;;8.43;4.57;;;;;;;;;;5024112;28;20033;-72
2023/05/30 14:01:58;;;;;;;12.73;4.65;;;;;;;;;;5023935;28;20033;-72
2023/05/30 14:04:24;;;;;;;9.57;4.75;;;;;;;;;;5025424;28;20735;-71
2023/05/30 14:06:51;;;;;;;8.02;4.70;;;;;;;;;;5025025;28;20041;-71
2023/05/30 14:09:19;;;;;;;13.68;5.57;;;;;;;;;;5023615;28;20037;-72
2023/05/30 14:11:45;;;;;;;7.82;4.93;;;;;;;;;;5022569;28;20030;-71
2023/05/30 14:14:11;;;;;;;8.60;4.35;;;;;;;;;;5025295;28;20033;-72
2023/05/30 14:16:36;;;;;;;8.15;4.75;;;;;;;;;;5018148;28;20028;-71
2023/05/30 14:19:04;;;;;;;8.98;5.00;;;;;;;;;;5015273;28;20501;-72
2023/05/30 14:21:30;;;;;;;16.48;4.90;;;;;;;;;;5019891;28;20396;-71
2023/05/30 14:23:55;;;;;;;10.45;5.00;;;;;;;;;;5015840;28;20061;-72
2023/05/30 14:26:21;;;;;;;10.90;4.32;;;;;;;;;;5012294;28;20729;-71
2023/05/30 14:28:47;;;;;;;10.15;4.63;;;;;;;;;;5024062;28;20576;-72
2023/05/30 14:31:12;;;;;;;13.35;4.18;;;;;;;;;;5025301;28;20018;-72
2023/05/30 14:33:38;;;;;;;8.98;4.50;;;;;;;;;;5015545;28;20629;-72
2023/05/30 14:36:04;;;;;;;10.93;4.57;;;;;;;;;;5021289;28;21299;-72